Terminal Aerodrome Forecast
Issued by NWS

Current Version | Previous Version | Text Only | Print | Product List | Glossary Off
Versions: 1 2 3 4 5 6 7 8 9 10 11 12 13 14 15 16 17 18 19 20 21 22

000
FTUS44 KOHX 260300 AAA
TAFCKV
TAF AMD
KCKV 260322Z 2603/2624 00000KT 1 1/2SM BR SCT010
      TEMPO 2603/2607 1/4SM FG
     FM260700 00000KT 1 1/2SM BR SCT008
      TEMPO 2609/2613 1/4SM FG BKN008
     FM261500 VRB03KT P6SM SCT030
     FM261800 14005KT P6SM SKC=

USA.gov is the U.S. government's official web portal to all federal, state and local government web resources and services.